^^
Meteo Knjazevac Station Historical Data
Daily Summary for March 2, 2021 Units:  Both    English   Metric
Daily Weekly Monthly Yearly Custom
  High: Low: Average:
Temperature: 55.9 °F /  13.3 °C 39.9 °F /  4.4 °C 48.6 °F /  9.2 °C
Dew Point: 41.6 °F /  5.3 °C 33.3 °F /  0.7 °C 38.3 °F /  3.5 °C
Humidity: 79% 57% 68%
Wind Speed: 10mph /  16.1km/h - 4.8mph /  7.7km/h
Wind Gust: 20mph /  32.2km/h - -
Wind- - SSE
Pressure: 29.92 in /  1013.1 hPa 29.71 in /  1006 hPa -
Precipitation: 0.00 in /  0 mm    
Historical Graphs
 
 
Tabular Data for March 2, 2021
Time Temperature Dew Point Pressure Wind Wind Speed Wind Gust Humidity Rainfall Rate (Hourly) solar Conditions
00:00 40.6 °F /  4.8 °C 33.3 °F /  0.7 °C 29.92in /  1013.1hPa SE 5mph /  8km/h 7mph /  11.3km/h 75% 0.00in /  0mm 0 W/m2
00:10 40.1 °F /  4.5 °C 33.5 °F /  0.8 °C 29.92in /  1013.1hPa ENE 2mph /  3.2km/h 7mph /  11.3km/h 77% 0.00in /  0mm 0 W/m2
00:20 40.5 °F /  4.7 °C 33.8 °F /  1 °C 29.92in /  1013.1hPa SSE 1mph /  1.6km/h 8mph /  12.9km/h 77% 0.00in /  0mm 0 W/m2
00:30 40.3 °F /  4.6 °C 33.6 °F /  0.9 °C 29.92in /  1013.1hPa SSE 1mph /  1.6km/h 8mph /  12.9km/h 77% 0.00in /  0mm 0 W/m2
00:40 40.5 °F /  4.7 °C 34.1 °F /  1.2 °C 29.92in /  1013.1hPa SE 3mph /  4.8km/h 9mph /  14.5km/h 78% 0.00in /  0mm 0 W/m2
00:50 40.5 °F /  4.7 °C 33.8 °F /  1 °C 29.92in /  1013.1hPa South 3mph /  4.8km/h 8mph /  12.9km/h 77% 0.00in /  0mm 0 W/m2
01:00 40.3 °F /  4.6 °C 34 °F /  1.1 °C 29.92in /  1013.1hPa NNW 2mph /  3.2km/h 5mph /  8km/h 78% 0.00in /  0mm 0 W/m2
01:10 39.9 °F /  4.4 °C 33.9 °F /  1.1 °C 29.92in /  1013.1hPa NNE 3mph /  4.8km/h 12mph /  19.3km/h 79% 0.00in /  0mm 0 W/m2
01:20 40.6 °F /  4.8 °C 34.6 °F /  1.4 °C 29.91in /  1012.8hPa ESE 7mph /  11.3km/h 13mph /  20.9km/h 79% 0.00in /  0mm 0 W/m2
01:30 41 °F /  5 °C 34.7 °F /  1.5 °C 29.91in /  1012.8hPa ESE 6mph /  9.7km/h 13mph /  20.9km/h 78% 0.00in /  0mm 0 W/m2
01:40 41 °F /  5 °C 34.7 °F /  1.5 °C 29.91in /  1012.8hPa SE 1mph /  1.6km/h 10mph /  16.1km/h 78% 0.00in /  0mm 0 W/m2
01:50 40.8 °F /  4.9 °C 34.5 °F /  1.4 °C 29.91in /  1012.8hPa SSE 1mph /  1.6km/h 7mph /  11.3km/h 78% 0.00in /  0mm 0 W/m2
02:00 40.6 °F /  4.8 °C 34.3 °F /  1.3 °C 29.91in /  1012.8hPa Calm   7mph /  11.3km/h 78% 0.00in /  0mm 0 W/m2
02:10 40.8 °F /  4.9 °C 34.5 °F /  1.4 °C 29.91in /  1012.8hPa SE 3mph /  4.8km/h 10mph /  16.1km/h 78% 0.00in /  0mm 0 W/m2
02:20 41.2 °F /  5.1 °C 34.5 °F /  1.4 °C 29.91in /  1012.8hPa SE 5mph /  8km/h 9mph /  14.5km/h 77% 0.00in /  0mm 0 W/m2
02:30 41.2 °F /  5.1 °C 34.5 °F /  1.4 °C 29.90in /  1012.4hPa SE 3mph /  4.8km/h 10mph /  16.1km/h 77% 0.00in /  0mm 0 W/m2
02:40 41.2 °F /  5.1 °C 34.5 °F /  1.4 °C 29.90in /  1012.4hPa SE 6mph /  9.7km/h 9mph /  14.5km/h 77% 0.00in /  0mm 0 W/m2
02:50 41.4 °F /  5.2 °C 34.7 °F /  1.5 °C 29.90in /  1012.4hPa SE 3mph /  4.8km/h 10mph /  16.1km/h 77% 0.00in /  0mm 0 W/m2
03:00 41.2 °F /  5.1 °C 34.5 °F /  1.4 °C 29.90in /  1012.4hPa SE 2mph /  3.2km/h 6mph /  9.7km/h 77% 0.00in /  0mm 0 W/m2
03:10 41 °F /  5 °C 34.7 °F /  1.5 °C 29.89in /  1012.1hPa SSW 3mph /  4.8km/h 7mph /  11.3km/h 78% 0.00in /  0mm 0 W/m2
03:20 41 °F /  5 °C 34.7 °F /  1.5 °C 29.89in /  1012.1hPa South 2mph /  3.2km/h 7mph /  11.3km/h 78% 0.00in /  0mm 0 W/m2
03:30 41.5 °F /  5.3 °C 34.9 °F /  1.6 °C 29.89in /  1012.1hPa South 3mph /  4.8km/h 7mph /  11.3km/h 77% 0.00in /  0mm 0 W/m2
03:40 41.9 °F /  5.5 °C 35.2 °F /  1.8 °C 29.88in /  1011.7hPa South 3mph /  4.8km/h 8mph /  12.9km/h 77% 0.00in /  0mm 0 W/m2
03:50 42.4 °F /  5.8 °C 35.1 °F /  1.7 °C 29.88in /  1011.7hPa South 7mph /  11.3km/h 10mph /  16.1km/h 75% 0.00in /  0mm 0 W/m2
04:00 42.6 °F /  5.9 °C 35.2 °F /  1.8 °C 29.88in /  1011.7hPa South 6mph /  9.7km/h 10mph /  16.1km/h 75% 0.00in /  0mm 0 W/m2
04:10 42.8 °F /  6 °C 35.4 °F /  1.9 °C 29.88in /  1011.7hPa SSW 6mph /  9.7km/h 10mph /  16.1km/h 75% 0.00in /  0mm 0 W/m2
04:20 42.8 °F /  6 °C 35.1 °F /  1.7 °C 29.88in /  1011.7hPa SSW 5mph /  8km/h 9mph /  14.5km/h 74% 0.00in /  0mm 0 W/m2
04:30 43 °F /  6.1 °C 35.3 °F /  1.8 °C 29.88in /  1011.7hPa SW 2mph /  3.2km/h 7mph /  11.3km/h 74% 0.00in /  0mm 0 W/m2
04:40 42.8 °F /  6 °C 35.1 °F /  1.7 °C 29.88in /  1011.7hPa SSW 2mph /  3.2km/h 6mph /  9.7km/h 74% 0.00in /  0mm 0 W/m2
04:50 42.8 °F /  6 °C 35.4 °F /  1.9 °C 29.88in /  1011.7hPa SSW 3mph /  4.8km/h 6mph /  9.7km/h 75% 0.00in /  0mm 0 W/m2
05:00 42.8 °F /  6 °C 35.4 °F /  1.9 °C 29.87in /  1011.4hPa SW 3mph /  4.8km/h 7mph /  11.3km/h 75% 0.00in /  0mm 0 W/m2
05:10 42.8 °F /  6 °C 35.4 °F /  1.9 °C 29.87in /  1011.4hPa SW 5mph /  8km/h 7mph /  11.3km/h 75% 0.00in /  0mm 0 W/m2
05:20 42.6 °F /  5.9 °C 35.2 °F /  1.8 °C 29.87in /  1011.4hPa WSW 3mph /  4.8km/h 8mph /  12.9km/h 75% 0.00in /  0mm 0 W/m2
05:30 42.6 °F /  5.9 °C 35.2 °F /  1.8 °C 29.86in /  1011.1hPa SW 3mph /  4.8km/h 7mph /  11.3km/h 75% 0.00in /  0mm 0 W/m2
05:40 42.8 °F /  6 °C 35.4 °F /  1.9 °C 29.86in /  1011.1hPa Calm   7mph /  11.3km/h 75% 0.00in /  0mm 0 W/m2
05:50 42.4 °F /  5.8 °C 35.1 °F /  1.7 °C 29.86in /  1011.1hPa Calm   5mph /  8km/h 75% 0.00in /  0mm 0 W/m2
06:00 42.4 °F /  5.8 °C 35.1 °F /  1.7 °C 29.86in /  1011.1hPa SSW 2mph /  3.2km/h 6mph /  9.7km/h 75% 0.00in /  0mm 0 W/m2
06:10 42.8 °F /  6 °C 35.4 °F /  1.9 °C 29.86in /  1011.1hPa SW 3mph /  4.8km/h 7mph /  11.3km/h 75% 0.00in /  0mm 0 W/m2
06:20 43 °F /  6.1 °C 35.6 °F /  2 °C 29.86in /  1011.1hPa SW 2mph /  3.2km/h 6mph /  9.7km/h 75% 0.00in /  0mm 0 W/m2
06:30 43 °F /  6.1 °C 35.6 °F /  2 °C 29.86in /  1011.1hPa Calm   5mph /  8km/h 75% 0.00in /  0mm 0 W/m2
06:40 43.2 °F /  6.2 °C 35.4 °F /  1.9 °C 29.86in /  1011.1hPa East 1mph /  1.6km/h 3mph /  4.8km/h 74% 0.00in /  0mm 0 W/m2
06:50 43 °F /  6.1 °C 35.6 °F /  2 °C 29.86in /  1011.1hPa Calm   4mph /  6.4km/h 75% 0.00in /  0mm 5 W/m2
07:10 43.9 °F /  6.6 °C 35.8 °F /  2.1 °C 29.86in /  1011.1hPa SW 3mph /  4.8km/h 10mph /  16.1km/h 73% 0.00in /  0mm 18 W/m2
07:30 44.2 °F /  6.8 °C 36.1 °F /  2.3 °C 29.86in /  1011.1hPa SSW 3mph /  4.8km/h 9mph /  14.5km/h 73% 0.00in /  0mm 27 W/m2
07:40 44.6 °F /  7 °C 36.5 °F /  2.5 °C 29.86in /  1011.1hPa South 5mph /  8km/h 10mph /  16.1km/h 73% 0.00in /  0mm 33 W/m2
07:50 44.8 °F /  7.1 °C 36.3 °F /  2.4 °C 29.86in /  1011.1hPa SSW 3mph /  4.8km/h 8mph /  12.9km/h 72% 0.00in /  0mm 51 W/m2
08:00 45 °F /  7.2 °C 36.5 °F /  2.5 °C 29.86in /  1011.1hPa South 3mph /  4.8km/h 8mph /  12.9km/h 72% 0.00in /  0mm 71 W/m2
08:10 45.2 °F /  7.3 °C 36.7 °F /  2.6 °C 29.86in /  1011.1hPa South 5mph /  8km/h 8mph /  12.9km/h 72% 0.00in /  0mm 82 W/m2
08:20 45.5 °F /  7.5 °C 37 °F /  2.8 °C 29.86in /  1011.1hPa South 5mph /  8km/h 8mph /  12.9km/h 72% 0.00in /  0mm 79 W/m2
08:30 45.9 °F /  7.7 °C 36.6 °F /  2.6 °C 29.86in /  1011.1hPa South 5mph /  8km/h 10mph /  16.1km/h 70% 0.00in /  0mm 98 W/m2
08:40 46.3 °F /  7.9 °C 37 °F /  2.8 °C 29.86in /  1011.1hPa South 5mph /  8km/h 12mph /  19.3km/h 70% 0.00in /  0mm 98 W/m2
08:50 46.8 °F /  8.2 °C 37.1 °F /  2.8 °C 29.86in /  1011.1hPa SSE 5mph /  8km/h 12mph /  19.3km/h 69% 0.00in /  0mm 94 W/m2
09:00 46.9 °F /  8.3 °C 37.3 °F /  2.9 °C 29.86in /  1011.1hPa SSE 2mph /  3.2km/h 9mph /  14.5km/h 69% 0.00in /  0mm 109 W/m2
09:10 47.1 °F /  8.4 °C 37.5 °F /  3.1 °C 29.86in /  1011.1hPa South 2mph /  3.2km/h 7mph /  11.3km/h 69% 0.00in /  0mm 131 W/m2
09:20 47.7 °F /  8.7 °C 38 °F /  3.3 °C 29.86in /  1011.1hPa SSE 6mph /  9.7km/h 9mph /  14.5km/h 69% 0.00in /  0mm 162 W/m2
09:30 48.2 °F /  9 °C 38.2 °F /  3.4 °C 29.85in /  1010.7hPa SE 7mph /  11.3km/h 13mph /  20.9km/h 68% 0.00in /  0mm 177 W/m2
09:40 48.9 °F /  9.4 °C 37.7 °F /  3.2 °C 29.86in /  1011.1hPa SE 6mph /  9.7km/h 16mph /  25.7km/h 65% 0.00in /  0mm 241 W/m2
09:50 49.3 °F /  9.6 °C 38 °F /  3.3 °C 29.85in /  1010.7hPa SSE 5mph /  8km/h 14mph /  22.5km/h 65% 0.00in /  0mm 202 W/m2
10:00 49.6 °F /  9.8 °C 38 °F /  3.3 °C 29.85in /  1010.7hPa SSE 6mph /  9.7km/h 17mph /  27.4km/h 64% 0.00in /  0mm 175 W/m2
10:10 50 °F /  10 °C 38.3 °F /  3.5 °C 29.84in /  1010.4hPa SE 6mph /  9.7km/h 15mph /  24.1km/h 64% 0.00in /  0mm 181 W/m2
10:20 50.2 °F /  10.1 °C 38.1 °F /  3.4 °C 29.84in /  1010.4hPa SE 8mph /  12.9km/h 18mph /  29km/h 63% 0.00in /  0mm 177 W/m2
10:30 50.5 °F /  10.3 °C 38 °F /  3.3 °C 29.84in /  1010.4hPa SE 8mph /  12.9km/h 20mph /  32.2km/h 62% 0.00in /  0mm 179 W/m2
10:40 51.1 °F /  10.6 °C 38.5 °F /  3.6 °C 29.84in /  1010.4hPa SE 9mph /  14.5km/h 17mph /  27.4km/h 62% 0.00in /  0mm 306 W/m2
10:50 51.6 °F /  10.9 °C 38.2 °F /  3.4 °C 29.83in /  1010hPa SE 9mph /  14.5km/h 17mph /  27.4km/h 60% 0.00in /  0mm 227 W/m2
11:00 52.4 °F /  11.3 °C 38.9 °F /  3.8 °C 29.83in /  1010hPa SE 10mph /  16.1km/h 17mph /  27.4km/h 60% 0.00in /  0mm 225 W/m2
11:10 52.7 °F /  11.5 °C 39.2 °F /  4 °C 29.83in /  1010hPa SE 5mph /  8km/h 16mph /  25.7km/h 60% 0.00in /  0mm 349 W/m2
11:20 53.8 °F /  12.1 °C 39.8 °F /  4.3 °C 29.83in /  1010hPa SE 9mph /  14.5km/h 18mph /  29km/h 59% 0.00in /  0mm 353 W/m2
11:30 54.7 °F /  12.6 °C 40.2 °F /  4.6 °C 29.83in /  1010hPa SE 9mph /  14.5km/h 17mph /  27.4km/h 58% 0.00in /  0mm 352 W/m2
11:40 55 °F /  12.8 °C 40.5 °F /  4.7 °C 29.82in /  1009.7hPa ESE 8mph /  12.9km/h 18mph /  29km/h 58% 0.00in /  0mm 349 W/m2
11:50 55.8 °F /  13.2 °C 40.7 °F /  4.8 °C 29.82in /  1009.7hPa SE 9mph /  14.5km/h 16mph /  25.7km/h 57% 0.00in /  0mm 281 W/m2
12:00 55.4 °F /  13 °C 40.4 °F /  4.7 °C 29.81in /  1009.4hPa SE 8mph /  12.9km/h 16mph /  25.7km/h 57% 0.00in /  0mm 141 W/m2
12:10 55 °F /  12.8 °C 40.5 °F /  4.7 °C 29.81in /  1009.4hPa SE 9mph /  14.5km/h 16mph /  25.7km/h 58% 0.00in /  0mm 149 W/m2
12:20 54.9 °F /  12.7 °C 40.4 °F /  4.7 °C 29.81in /  1009.4hPa SE 7mph /  11.3km/h 15mph /  24.1km/h 58% 0.00in /  0mm 169 W/m2
12:30 54.9 °F /  12.7 °C 40.4 °F /  4.7 °C 29.80in /  1009hPa SE 8mph /  12.9km/h 15mph /  24.1km/h 58% 0.00in /  0mm 179 W/m2
12:40 55 °F /  12.8 °C 40.5 °F /  4.7 °C 29.79in /  1008.7hPa SE 10mph /  16.1km/h 16mph /  25.7km/h 58% 0.00in /  0mm 166 W/m2
12:50 55.1 °F /  12.8 °C 41 °F /  5 °C 29.79in /  1008.7hPa SE 6mph /  9.7km/h 15mph /  24.1km/h 59% 0.00in /  0mm 255 W/m2
13:00 55.4 °F /  13 °C 40.9 °F /  4.9 °C 29.78in /  1008.4hPa SE 8mph /  12.9km/h 14mph /  22.5km/h 58% 0.00in /  0mm 204 W/m2
13:10 55.9 °F /  13.3 °C 41.4 °F /  5.2 °C 29.78in /  1008.4hPa SSE 8mph /  12.9km/h 17mph /  27.4km/h 58% 0.00in /  0mm 232 W/m2
13:20 55.8 °F /  13.2 °C 41.2 °F /  5.1 °C 29.78in /  1008.4hPa SSE 8mph /  12.9km/h 13mph /  20.9km/h 58% 0.00in /  0mm 130 W/m2
13:30 55.8 °F /  13.2 °C 41.2 °F /  5.1 °C 29.78in /  1008.4hPa SE 7mph /  11.3km/h 14mph /  22.5km/h 58% 0.00in /  0mm 177 W/m2
13:40 55.8 °F /  13.2 °C 41.2 °F /  5.1 °C 29.78in /  1008.4hPa SE 6mph /  9.7km/h 12mph /  19.3km/h 58% 0.00in /  0mm 151 W/m2
13:50 55.8 °F /  13.2 °C 41.2 °F /  5.1 °C 29.77in /  1008hPa SSE 7mph /  11.3km/h 15mph /  24.1km/h 58% 0.00in /  0mm 117 W/m2
14:00 55.6 °F /  13.1 °C 41 °F /  5 °C 29.77in /  1008hPa SE 7mph /  11.3km/h 17mph /  27.4km/h 58% 0.00in /  0mm 83 W/m2
14:10 55.2 °F /  12.9 °C 41.1 °F /  5.1 °C 29.77in /  1008hPa SE 5mph /  8km/h 13mph /  20.9km/h 59% 0.00in /  0mm 48 W/m2
14:20 55.2 °F /  12.9 °C 41.1 °F /  5.1 °C 29.76in /  1007.7hPa SE 2mph /  3.2km/h 9mph /  14.5km/h 59% 0.00in /  0mm 55 W/m2
14:30 55 °F /  12.8 °C 41.4 °F /  5.2 °C 29.77in /  1008hPa ESE 2mph /  3.2km/h 7mph /  11.3km/h 60% 0.00in /  0mm 65 W/m2
14:40 55 °F /  12.8 °C 41 °F /  5 °C 29.77in /  1008hPa ESE 6mph /  9.7km/h 8mph /  12.9km/h 59% 0.00in /  0mm 54 W/m2
14:50 54.9 °F /  12.7 °C 41.2 °F /  5.1 °C 29.77in /  1008hPa ESE 3mph /  4.8km/h 8mph /  12.9km/h 60% 0.00in /  0mm 49 W/m2
15:00 54.9 °F /  12.7 °C 41.2 °F /  5.1 °C 29.76in /  1007.7hPa SE 5mph /  8km/h 11mph /  17.7km/h 60% 0.00in /  0mm 64 W/m2
15:10 55.2 °F /  12.9 °C 41.6 °F /  5.3 °C 29.76in /  1007.7hPa SE 5mph /  8km/h 12mph /  19.3km/h 60% 0.00in /  0mm 46 W/m2
15:20 55.2 °F /  12.9 °C 41.1 °F /  5.1 °C 29.76in /  1007.7hPa SE 7mph /  11.3km/h 14mph /  22.5km/h 59% 0.00in /  0mm 29 W/m2
15:30 54.9 °F /  12.7 °C 40.8 °F /  4.9 °C 29.75in /  1007.3hPa SE 7mph /  11.3km/h 16mph /  25.7km/h 59% 0.00in /  0mm 13 W/m2
15:40 54.3 °F /  12.4 °C 40.7 °F /  4.8 °C 29.75in /  1007.3hPa ESE 7mph /  11.3km/h 14mph /  22.5km/h 60% 0.00in /  0mm 12 W/m2
15:50 54.1 °F /  12.3 °C 40.5 °F /  4.7 °C 29.75in /  1007.3hPa SE 7mph /  11.3km/h 12mph /  19.3km/h 60% 0.00in /  0mm 7 W/m2
16:00 53.7 °F /  12.1 °C 41 °F /  5 °C 29.75in /  1007.3hPa SE 5mph /  8km/h 10mph /  16.1km/h 62% 0.00in /  0mm 0 W/m2
16:10 53.2 °F /  11.8 °C 40.5 °F /  4.7 °C 29.75in /  1007.3hPa SSE 5mph /  8km/h 8mph /  12.9km/h 62% 0.00in /  0mm 0 W/m2
16:20 52.9 °F /  11.6 °C 40.6 °F /  4.8 °C 29.75in /  1007.3hPa SSE 5mph /  8km/h 10mph /  16.1km/h 63% 0.00in /  0mm 0 W/m2
16:30 52.5 °F /  11.4 °C 40.3 °F /  4.6 °C 29.76in /  1007.7hPa SSE 6mph /  9.7km/h 10mph /  16.1km/h 63% 0.00in /  0mm 0 W/m2
16:40 52.3 °F /  11.3 °C 40.1 °F /  4.5 °C 29.76in /  1007.7hPa SSE 5mph /  8km/h 14mph /  22.5km/h 63% 0.00in /  0mm 0 W/m2
16:50 52 °F /  11.1 °C 40.2 °F /  4.6 °C 29.76in /  1007.7hPa South 5mph /  8km/h 7mph /  11.3km/h 64% 0.00in /  0mm 0 W/m2
17:00 51.7 °F /  10.9 °C 39.9 °F /  4.4 °C 29.76in /  1007.7hPa South 3mph /  4.8km/h 9mph /  14.5km/h 64% 0.00in /  0mm 0 W/m2
17:10 51.4 °F /  10.8 °C 40.1 °F /  4.5 °C 29.76in /  1007.7hPa South 5mph /  8km/h 9mph /  14.5km/h 65% 0.00in /  0mm 0 W/m2
17:20 51.2 °F /  10.7 °C 39.8 °F /  4.3 °C 29.76in /  1007.7hPa South 2mph /  3.2km/h 8mph /  12.9km/h 65% 0.00in /  0mm 0 W/m2
17:30 50.7 °F /  10.4 °C 40.2 °F /  4.6 °C 29.76in /  1007.7hPa SSE 3mph /  4.8km/h 6mph /  9.7km/h 67% 0.00in /  0mm 0 W/m2
17:40 50.5 °F /  10.3 °C 40 °F /  4.4 °C 29.77in /  1008hPa SSE 2mph /  3.2km/h 8mph /  12.9km/h 67% 0.00in /  0mm 0 W/m2
17:50 50.4 °F /  10.2 °C 40.2 °F /  4.6 °C 29.77in /  1008hPa SSW 2mph /  3.2km/h 6mph /  9.7km/h 68% 0.00in /  0mm 0 W/m2
18:00 50.2 °F /  10.1 °C 40 °F /  4.4 °C 29.76in /  1007.7hPa SSW 1mph /  1.6km/h 5mph /  8km/h 68% 0.00in /  0mm 0 W/m2
18:10 50 °F /  10 °C 39.8 °F /  4.3 °C 29.76in /  1007.7hPa South 2mph /  3.2km/h 5mph /  8km/h 68% 0.00in /  0mm 0 W/m2
18:20 50 °F /  10 °C 40.2 °F /  4.6 °C 29.75in /  1007.3hPa SSE 5mph /  8km/h 8mph /  12.9km/h 69% 0.00in /  0mm 0 W/m2
18:30 50.7 °F /  10.4 °C 40.5 °F /  4.7 °C 29.75in /  1007.3hPa SSE 5mph /  8km/h 10mph /  16.1km/h 68% 0.00in /  0mm 0 W/m2
18:40 51 °F /  10.6 °C 40.4 °F /  4.7 °C 29.76in /  1007.7hPa SE 3mph /  4.8km/h 9mph /  14.5km/h 67% 0.00in /  0mm 0 W/m2
18:50 51.1 °F /  10.6 °C 40.5 °F /  4.7 °C 29.75in /  1007.3hPa SE 5mph /  8km/h 12mph /  19.3km/h 67% 0.00in /  0mm 0 W/m2
19:00 51.4 °F /  10.8 °C 40.1 °F /  4.5 °C 29.75in /  1007.3hPa SE 7mph /  11.3km/h 15mph /  24.1km/h 65% 0.00in /  0mm 0 W/m2
19:10 51.4 °F /  10.8 °C 40.1 °F /  4.5 °C 29.75in /  1007.3hPa SE 5mph /  8km/h 13mph /  20.9km/h 65% 0.00in /  0mm 0 W/m2
19:20 51.4 °F /  10.8 °C 40.1 °F /  4.5 °C 29.75in /  1007.3hPa SE 6mph /  9.7km/h 19mph /  30.6km/h 65% 0.00in /  0mm 0 W/m2
19:30 51.3 °F /  10.7 °C 39.9 °F /  4.4 °C 29.75in /  1007.3hPa SSE 5mph /  8km/h 11mph /  17.7km/h 65% 0.00in /  0mm 0 W/m2
19:40 51.3 °F /  10.7 °C 39.9 °F /  4.4 °C 29.75in /  1007.3hPa SE 7mph /  11.3km/h 12mph /  19.3km/h 65% 0.00in /  0mm 0 W/m2
19:50 51.3 °F /  10.7 °C 39.9 °F /  4.4 °C 29.75in /  1007.3hPa SE 6mph /  9.7km/h 12mph /  19.3km/h 65% 0.00in /  0mm 0 W/m2
20:00 51.3 °F /  10.7 °C 39.9 °F /  4.4 °C 29.75in /  1007.3hPa SE 6mph /  9.7km/h 10mph /  16.1km/h 65% 0.00in /  0mm 0 W/m2
20:10 51.3 °F /  10.7 °C 39.9 °F /  4.4 °C 29.75in /  1007.3hPa SE 5mph /  8km/h 14mph /  22.5km/h 65% 0.00in /  0mm 0 W/m2
20:20 51.3 °F /  10.7 °C 40.7 °F /  4.8 °C 29.74in /  1007hPa SSE 6mph /  9.7km/h 13mph /  20.9km/h 67% 0.00in /  0mm 0 W/m2
20:30 51.1 °F /  10.6 °C 40.1 °F /  4.5 °C 29.73in /  1006.7hPa SSE 7mph /  11.3km/h 16mph /  25.7km/h 66% 0.00in /  0mm 0 W/m2
20:40 51.1 °F /  10.6 °C 40.5 °F /  4.7 °C 29.73in /  1006.7hPa SSE 6mph /  9.7km/h 13mph /  20.9km/h 67% 0.00in /  0mm 0 W/m2
20:50 51.2 °F /  10.7 °C 40.2 °F /  4.6 °C 29.73in /  1006.7hPa SSE 6mph /  9.7km/h 15mph /  24.1km/h 66% 0.00in /  0mm 0 W/m2
21:00 51.4 °F /  10.8 °C 40.1 °F /  4.5 °C 29.72in /  1006.3hPa SE 9mph /  14.5km/h 20mph /  32.2km/h 65% 0.00in /  0mm 0 W/m2
21:10 51.4 °F /  10.8 °C 40.1 °F /  4.5 °C 29.71in /  1006hPa SE 3mph /  4.8km/h 12mph /  19.3km/h 65% 0.00in /  0mm 0 W/m2
21:20 51.4 °F /  10.8 °C 40.1 °F /  4.5 °C 29.72in /  1006.3hPa ESE 3mph /  4.8km/h 10mph /  16.1km/h 65% 0.00in /  0mm 0 W/m2
21:30 51.4 °F /  10.8 °C 40.1 °F /  4.5 °C 29.72in /  1006.3hPa ESE 3mph /  4.8km/h 7mph /  11.3km/h 65% 0.00in /  0mm 0 W/m2
21:40 51.3 °F /  10.7 °C 40.7 °F /  4.8 °C 29.71in /  1006hPa East 3mph /  4.8km/h 12mph /  19.3km/h 67% 0.00in /  0mm 0 W/m2
21:50 51.1 °F /  10.6 °C 40.5 °F /  4.7 °C 29.71in /  1006hPa ESE 3mph /  4.8km/h 7mph /  11.3km/h 67% 0.00in /  0mm 0 W/m2
22:00 50.7 °F /  10.4 °C 40.2 °F /  4.6 °C 29.71in /  1006hPa SSE 7mph /  11.3km/h 12mph /  19.3km/h 67% 0.00in /  0mm 0 W/m2
22:10 51.3 °F /  10.7 °C 39.9 °F /  4.4 °C 29.71in /  1006hPa SSE 9mph /  14.5km/h 15mph /  24.1km/h 65% 0.00in /  0mm 0 W/m2
22:20 51.4 °F /  10.8 °C 40.1 °F /  4.5 °C 29.71in /  1006hPa SSE 8mph /  12.9km/h 16mph /  25.7km/h 65% 0.00in /  0mm 0 W/m2
22:30 51.3 °F /  10.7 °C 40 °F /  4.4 °C 29.71in /  1006hPa South 6mph /  9.7km/h 14mph /  22.5km/h 65% 0.00in /  0mm 0 W/m2
22:40 51.3 °F /  10.7 °C 39.9 °F /  4.4 °C 29.71in /  1006hPa SSW 5mph /  8km/h 12mph /  19.3km/h 65% 0.00in /  0mm 0 W/m2
22:50 51.1 °F /  10.6 °C 39.7 °F /  4.3 °C 29.71in /  1006hPa South 3mph /  4.8km/h 8mph /  12.9km/h 65% 0.00in /  0mm 0 W/m2
23:00 51.3 °F /  10.7 °C 39.9 °F /  4.4 °C 29.71in /  1006hPa South 6mph /  9.7km/h 12mph /  19.3km/h 65% 0.00in /  0mm 0 W/m2
23:10 51.4 °F /  10.8 °C 40.1 °F /  4.5 °C 29.71in /  1006hPa SSE 9mph /  14.5km/h 16mph /  25.7km/h 65% 0.00in /  0mm 0 W/m2
23:20 51.6 °F /  10.9 °C 40.2 °F /  4.6 °C 29.71in /  1006hPa SSE 7mph /  11.3km/h 14mph /  22.5km/h 65% 0.00in /  0mm 0 W/m2
23:30 51.4 °F /  10.8 °C 40.1 °F /  4.5 °C 29.71in /  1006hPa SSE 3mph /  4.8km/h 9mph /  14.5km/h 65% 0.00in /  0mm 0 W/m2
23:40 51.4 °F /  10.8 °C 40.1 °F /  4.5 °C 29.71in /  1006hPa SE 6mph /  9.7km/h 10mph /  16.1km/h 65% 0.00in /  0mm 0 W/m2
23:50 51.4 °F /  10.8 °C 40.8 °F /  4.9 °C 29.71in /  1006hPa SSE 2mph /  3.2km/h 10mph /  16.1km/h 67% 0.00in /  0mm 0 W/m2
Knjazevac, Serbia
Compliments of Weather Underground - 2 mb